Salem, New Jersey
Current Conditions -  °F | °C
As of 2:51 AM on Tuesday 21 Oct 2014 (Local Time) from KILG Reporting Station
Overcast Overcast  
Wind Chill: 12°   Ceiling: 8000
Heat Index: 12°   Visibility: 10mi
Dew Point:   Wind: 0mph
Humidity: 72%   Direction: NA
Pressure: 29.92"   Gusts: NA
Location:  39.57°N, 75.47°W
Report Text: KILG 210651Z 00000KT 10SM BKN080 OVC120 12/07 A2992 RMK AO2 SLP130 T01220072
Loading
Personal Weather Stations






























Interactive Weather Map
Tropical Storm Tracking
New forecast layout! Learn more

10-Day Weather Forecast

Advertisements
Track Severe Weather on mobile